sensor_id;sensor_type;location;lat;lon;timestamp;P1;durP1;ratioP1;P2;durP2;ratioP2
64966;SDS011;51710;38.732;-121.358;2022-09-02T00:00:48;1.77;;;1.10;;
64966;SDS011;51710;38.732;-121.358;2022-09-02T00:03:17;1.90;;;1.05;;
64966;SDS011;51710;38.732;-121.358;2022-09-02T00:05:45;4.68;;;1.20;;
64966;SDS011;51710;38.732;-121.358;2022-09-02T00:08:12;1.17;;;0.90;;
64966;SDS011;51710;38.732;-121.358;2022-09-02T00:10:41;3.72;;;1.20;;
64966;SDS011;51710;38.732;-121.358;2022-09-02T00:13:10;5.30;;;1.10;;
64966;SDS011;51710;38.732;-121.358;2022-09-02T00:15:39;4.03;;;1.70;;
64966;SDS011;51710;38.732;-121.358;2022-09-02T00:18:07;3.55;;;1.13;;
64966;SDS011;51710;38.732;-121.358;2022-09-02T00:20:41;1.65;;;1.10;;
64966;SDS011;51710;38.732;-121.358;2022-09-02T00:23:11;1.83;;;1.00;;
64966;SDS011;51710;38.732;-121.358;2022-09-02T00:25:38;2.83;;;1.20;;
64966;SDS011;51710;38.732;-121.358;2022-09-02T00:28:05;1.65;;;1.17;;
64966;SDS011;51710;38.732;-121.358;2022-09-02T00:30:32;3.40;;;1.30;;
64966;SDS011;51710;38.732;-121.358;2022-09-02T00:33:00;3.05;;;1.80;;
64966;SDS011;51710;38.732;-121.358;2022-09-02T00:35:28;3.00;;;1.08;;
64966;SDS011;51710;38.732;-121.358;2022-09-02T00:37:55;1.33;;;1.08;;
64966;SDS011;51710;38.732;-121.358;2022-09-02T00:40:22;2.83;;;1.05;;
64966;SDS011;51710;38.732;-121.358;2022-09-02T00:42:49;2.90;;;0.93;;
64966;SDS011;51710;38.732;-121.358;2022-09-02T00:45:18;2.65;;;1.20;;
64966;SDS011;51710;38.732;-121.358;2022-09-02T00:47:46;3.85;;;1.10;;
64966;SDS011;51710;38.732;-121.358;2022-09-02T00:50:17;2.28;;;1.00;;
64966;SDS011;51710;38.732;-121.358;2022-09-02T00:52:48;2.58;;;0.88;;
64966;SDS011;51710;38.732;-121.358;2022-09-02T00:55:23;3.67;;;0.95;;
64966;SDS011;51710;38.732;-121.358;2022-09-02T00:57:59;1.98;;;1.20;;
64966;SDS011;51710;38.732;-121.358;2022-09-02T01:00:32;3.53;;;1.10;;
64966;SDS011;51710;38.732;-121.358;2022-09-02T01:03:06;4.10;;;1.13;;
64966;SDS011;51710;38.732;-121.358;2022-09-02T01:08:04;2.40;;;1.20;;
64966;SDS011;51710;38.732;-121.358;2022-09-02T01:10:32;1.67;;;1.17;;
64966;SDS011;51710;38.732;-121.358;2022-09-02T01:13:01;2.35;;;1.02;;
64966;SDS011;51710;38.732;-121.358;2022-09-02T01:15:36;1.30;;;0.80;;
64966;SDS011;51710;38.732;-121.358;2022-09-02T01:18:08;2.85;;;1.13;;
64966;SDS011;51710;38.732;-121.358;2022-09-02T01:20:38;1.88;;;0.93;;
64966;SDS011;51710;38.732;-121.358;2022-09-02T01:23:05;7.40;;;1.00;;
64966;SDS011;51710;38.732;-121.358;2022-09-02T01:25:32;1.75;;;1.00;;
64966;SDS011;51710;38.732;-121.358;2022-09-02T01:28:07;1.70;;;0.90;;
64966;SDS011;51710;38.732;-121.358;2022-09-02T01:30:38;3.80;;;0.80;;
64966;SDS011;51710;38.732;-121.358;2022-09-02T01:33:08;2.67;;;1.00;;
64966;SDS011;51710;38.732;-121.358;2022-09-02T01:35:36;2.67;;;0.80;;
64966;SDS011;51710;38.732;-121.358;2022-09-02T01:38:04;3.05;;;0.95;;
64966;SDS011;51710;38.732;-121.358;2022-09-02T01:40:31;3.53;;;0.95;;
64966;SDS011;51710;38.732;-121.358;2022-09-02T01:43:00;2.55;;;0.90;;
64966;SDS011;51710;38.732;-121.358;2022-09-02T01:45:31;5.20;;;1.95;;
64966;SDS011;51710;38.732;-121.358;2022-09-02T01:48:02;2.03;;;1.00;;
64966;SDS011;51710;38.732;-121.358;2022-09-02T01:50:29;2.25;;;1.10;;
64966;SDS011;51710;38.732;-121.358;2022-09-02T01:52:56;4.53;;;0.82;;
64966;SDS011;51710;38.732;-121.358;2022-09-02T01:55:24;4.95;;;1.40;;
64966;SDS011;51710;38.732;-121.358;2022-09-02T01:57:51;4.15;;;1.10;;
64966;SDS011;51710;38.732;-121.358;2022-09-02T02:00:17;2.22;;;1.00;;
64966;SDS011;51710;38.732;-121.358;2022-09-02T02:02:44;1.88;;;1.00;;
64966;SDS011;51710;38.732;-121.358;2022-09-02T02:05:11;6.60;;;1.10;;
64966;SDS011;51710;38.732;-121.358;2022-09-02T02:07:40;1.48;;;0.93;;
64966;SDS011;51710;38.732;-121.358;2022-09-02T02:10:08;2.80;;;0.90;;
64966;SDS011;51710;38.732;-121.358;2022-09-02T02:12:36;1.63;;;0.93;;
64966;SDS011;51710;38.732;-121.358;2022-09-02T02:15:04;3.67;;;0.80;;
64966;SDS011;51710;38.732;-121.358;2022-09-02T02:17:34;2.15;;;1.02;;
64966;SDS011;51710;38.732;-121.358;2022-09-02T02:20:03;2.53;;;0.68;;
64966;SDS011;51710;38.732;-121.358;2022-09-02T02:22:31;2.67;;;0.90;;
64966;SDS011;51710;38.732;-121.358;2022-09-02T02:24:58;2.80;;;0.80;;
64966;SDS011;51710;38.732;-121.358;2022-09-02T02:27:25;4.50;;;1.38;;
64966;SDS011;51710;38.732;-121.358;2022-09-02T02:29:52;1.50;;;0.85;;
64966;SDS011;51710;38.732;-121.358;2022-09-02T02:32:19;3.38;;;1.00;;
64966;SDS011;51710;38.732;-121.358;2022-09-02T02:34:46;2.30;;;0.85;;
64966;SDS011;51710;38.732;-121.358;2022-09-02T02:37:13;2.45;;;0.77;;
64966;SDS011;51710;38.732;-121.358;2022-09-02T02:39:41;3.05;;;0.85;;
64966;SDS011;51710;38.732;-121.358;2022-09-02T02:42:09;1.27;;;0.88;;
64966;SDS011;51710;38.732;-121.358;2022-09-02T02:44:38;3.95;;;1.08;;
64966;SDS011;51710;38.732;-121.358;2022-09-02T02:47:06;1.75;;;0.90;;
64966;SDS011;51710;38.732;-121.358;2022-09-02T02:49:37;2.33;;;0.93;;
64966;SDS011;51710;38.732;-121.358;2022-09-02T02:52:06;1.92;;;0.95;;
64966;SDS011;51710;38.732;-121.358;2022-09-02T02:54:34;2.80;;;1.02;;
64966;SDS011;51710;38.732;-121.358;2022-09-02T02:57:01;3.30;;;1.17;;
64966;SDS011;51710;38.732;-121.358;2022-09-02T02:59:29;3.45;;;1.00;;
64966;SDS011;51710;38.732;-121.358;2022-09-02T03:01:56;5.72;;;1.10;;
64966;SDS011;51710;38.732;-121.358;2022-09-02T03:04:23;3.20;;;1.00;;
64966;SDS011;51710;38.732;-121.358;2022-09-02T03:06:49;4.63;;;1.17;;
64966;SDS011;51710;38.732;-121.358;2022-09-02T03:09:16;1.63;;;0.80;;
64966;SDS011;51710;38.732;-121.358;2022-09-02T03:11:45;1.92;;;1.17;;
64966;SDS011;51710;38.732;-121.358;2022-09-02T03:14:12;3.65;;;1.25;;
64966;SDS011;51710;38.732;-121.358;2022-09-02T03:16:39;3.75;;;1.00;;
64966;SDS011;51710;38.732;-121.358;2022-09-02T03:19:07;3.97;;;1.13;;
64966;SDS011;51710;38.732;-121.358;2022-09-02T03:21:38;4.00;;;1.40;;
64966;SDS011;51710;38.732;-121.358;2022-09-02T03:24:06;4.82;;;1.20;;
64966;SDS011;51710;38.732;-121.358;2022-09-02T03:26:34;1.10;;;0.82;;
64966;SDS011;51710;38.732;-121.358;2022-09-02T03:29:01;3.25;;;1.13;;
64966;SDS011;51710;38.732;-121.358;2022-09-02T03:31:29;2.08;;;0.93;;
64966;SDS011;51710;38.732;-121.358;2022-09-02T03:33:55;2.97;;;1.08;;
64966;SDS011;51710;38.732;-121.358;2022-09-02T03:36:32;2.95;;;0.90;;
64966;SDS011;51710;38.732;-121.358;2022-09-02T03:39:02;2.38;;;0.93;;
64966;SDS011;51710;38.732;-121.358;2022-09-02T03:41:29;2.92;;;1.13;;
64966;SDS011;51710;38.732;-121.358;2022-09-02T03:43:56;3.65;;;1.20;;
64966;SDS011;51710;38.732;-121.358;2022-09-02T03:46:24;4.22;;;1.10;;
64966;SDS011;51710;38.732;-121.358;2022-09-02T03:48:51;5.82;;;1.55;;
64966;SDS011;51710;38.732;-121.358;2022-09-02T03:51:19;2.80;;;1.27;;
64966;SDS011;51710;38.732;-121.358;2022-09-02T03:53:47;5.00;;;1.77;;
64966;SDS011;51710;38.732;-121.358;2022-09-02T03:56:14;5.90;;;1.60;;
64966;SDS011;51710;38.732;-121.358;2022-09-02T03:58:42;3.38;;;1.50;;
64966;SDS011;51710;38.732;-121.358;2022-09-02T04:01:14;4.75;;;1.40;;
64966;SDS011;51710;38.732;-121.358;2022-09-02T04:03:45;1.80;;;1.23;;
64966;SDS011;51710;38.732;-121.358;2022-09-02T04:06:12;3.35;;;1.30;;
64966;SDS011;51710;38.732;-121.358;2022-09-02T04:08:41;3.65;;;1.38;;
64966;SDS011;51710;38.732;-121.358;2022-09-02T04:11:12;3.40;;;1.73;;
64966;SDS011;51710;38.732;-121.358;2022-09-02T04:13:42;6.65;;;1.40;;
64966;SDS011;51710;38.732;-121.358;2022-09-02T04:16:12;4.20;;;1.90;;
64966;SDS011;51710;38.732;-121.358;2022-09-02T04:18:42;4.53;;;1.52;;
64966;SDS011;51710;38.732;-121.358;2022-09-02T04:21:08;4.18;;;1.45;;
64966;SDS011;51710;38.732;-121.358;2022-09-02T04:23:35;5.22;;;1.50;;
64966;SDS011;51710;38.732;-121.358;2022-09-02T04:26:07;5.82;;;1.52;;
64966;SDS011;51710;38.732;-121.358;2022-09-02T04:28:36;5.57;;;1.65;;
64966;SDS011;51710;38.732;-121.358;2022-09-02T04:31:07;5.88;;;1.60;;
64966;SDS011;51710;38.732;-121.358;2022-09-02T04:33:35;10.05;;;2.17;;
64966;SDS011;51710;38.732;-121.358;2022-09-02T04:36:06;7.90;;;1.45;;
64966;SDS011;51710;38.732;-121.358;2022-09-02T04:38:35;4.53;;;1.38;;
64966;SDS011;51710;38.732;-121.358;2022-09-02T04:41:08;5.28;;;1.90;;
64966;SDS011;51710;38.732;-121.358;2022-09-02T04:43:37;4.88;;;1.55;;
64966;SDS011;51710;38.732;-121.358;2022-09-02T04:46:06;2.80;;;1.40;;
64966;SDS011;51710;38.732;-121.358;2022-09-02T04:48:35;9.63;;;2.55;;
64966;SDS011;51710;38.732;-121.358;2022-09-02T04:51:07;7.68;;;2.03;;
64966;SDS011;51710;38.732;-121.358;2022-09-02T04:53:35;6.00;;;1.95;;
64966;SDS011;51710;38.732;-121.358;2022-09-02T04:56:04;5.57;;;1.45;;
64966;SDS011;51710;38.732;-121.358;2022-09-02T04:58:33;5.75;;;1.70;;
64966;SDS011;51710;38.732;-121.358;2022-09-02T05:01:07;4.50;;;2.08;;
64966;SDS011;51710;38.732;-121.358;2022-09-02T05:03:42;8.82;;;1.90;;
64966;SDS011;51710;38.732;-121.358;2022-09-02T05:06:11;6.43;;;1.83;;
64966;SDS011;51710;38.732;-121.358;2022-09-02T05:08:39;5.45;;;1.60;;
64966;SDS011;51710;38.732;-121.358;2022-09-02T05:11:08;8.82;;;1.83;;
64966;SDS011;51710;38.732;-121.358;2022-09-02T05:13:38;4.75;;;1.80;;
64966;SDS011;51710;38.732;-121.358;2022-09-02T05:16:05;6.18;;;1.90;;
64966;SDS011;51710;38.732;-121.358;2022-09-02T05:18:32;5.13;;;1.98;;
64966;SDS011;51710;38.732;-121.358;2022-09-02T05:21:02;5.90;;;2.03;;
64966;SDS011;51710;38.732;-121.358;2022-09-02T05:23:31;3.85;;;1.95;;
64966;SDS011;51710;38.732;-121.358;2022-09-02T05:26:01;7.85;;;1.50;;
64966;SDS011;51710;38.732;-121.358;2022-09-02T05:28:29;8.60;;;2.78;;
64966;SDS011;51710;38.732;-121.358;2022-09-02T05:31:01;10.45;;;2.28;;
64966;SDS011;51710;38.732;-121.358;2022-09-02T05:33:31;4.93;;;1.83;;
64966;SDS011;51710;38.732;-121.358;2022-09-02T05:36:01;7.60;;;2.10;;
64966;SDS011;51710;38.732;-121.358;2022-09-02T05:38:28;3.63;;;1.65;;
64966;SDS011;51710;38.732;-121.358;2022-09-02T05:40:56;7.30;;;2.10;;
64966;SDS011;51710;38.732;-121.358;2022-09-02T05:43:24;7.45;;;1.85;;
64966;SDS011;51710;38.732;-121.358;2022-09-02T05:45:51;7.63;;;2.03;;
64966;SDS011;51710;38.732;-121.358;2022-09-02T05:48:17;5.90;;;1.85;;
64966;SDS011;51710;38.732;-121.358;2022-09-02T05:51:03;5.05;;;2.10;;
64966;SDS011;51710;38.732;-121.358;2022-09-02T05:53:31;5.60;;;2.20;;
64966;SDS011;51710;38.732;-121.358;2022-09-02T05:55:57;6.05;;;1.80;;
64966;SDS011;51710;38.732;-121.358;2022-09-02T05:58:29;7.97;;;2.05;;
64966;SDS011;51710;38.732;-121.358;2022-09-02T06:00:56;5.45;;;2.03;;
64966;SDS011;51710;38.732;-121.358;2022-09-02T06:03:23;9.38;;;2.33;;
64966;SDS011;51710;38.732;-121.358;2022-09-02T06:05:56;5.47;;;1.77;;
64966;SDS011;51710;38.732;-121.358;2022-09-02T06:08:23;7.72;;;1.85;;
64966;SDS011;51710;38.732;-121.358;2022-09-02T06:10:51;6.10;;;2.20;;
64966;SDS011;51710;38.732;-121.358;2022-09-02T06:13:18;4.63;;;1.70;;
64966;SDS011;51710;38.732;-121.358;2022-09-02T06:15:47;5.72;;;2.55;;
64966;SDS011;51710;38.732;-121.358;2022-09-02T06:18:15;4.55;;;1.80;;
64966;SDS011;51710;38.732;-121.358;2022-09-02T06:20:43;11.40;;;2.08;;
64966;SDS011;51710;38.732;-121.358;2022-09-02T06:23:12;3.78;;;1.95;;
64966;SDS011;51710;38.732;-121.358;2022-09-02T06:25:41;7.55;;;1.90;;
64966;SDS011;51710;38.732;-121.358;2022-09-02T06:28:10;5.80;;;1.90;;
64966;SDS011;51710;38.732;-121.358;2022-09-02T06:30:39;6.78;;;1.85;;
64966;SDS011;51710;38.732;-121.358;2022-09-02T06:33:08;10.43;;;2.13;;
64966;SDS011;51710;38.732;-121.358;2022-09-02T06:35:38;5.00;;;2.00;;
64966;SDS011;51710;38.732;-121.358;2022-09-02T06:38:06;7.30;;;1.90;;
64966;SDS011;51710;38.732;-121.358;2022-09-02T06:40:35;7.78;;;2.00;;
64966;SDS011;51710;38.732;-121.358;2022-09-02T06:43:10;6.28;;;1.70;;
64966;SDS011;51710;38.732;-121.358;2022-09-02T06:45:41;7.13;;;1.80;;
64966;SDS011;51710;38.732;-121.358;2022-09-02T06:48:08;3.45;;;1.80;;
64966;SDS011;51710;38.732;-121.358;2022-09-02T06:50:44;4.63;;;2.00;;
64966;SDS011;51710;38.732;-121.358;2022-09-02T06:53:11;5.20;;;2.00;;
64966;SDS011;51710;38.732;-121.358;2022-09-02T06:55:40;7.50;;;1.67;;
64966;SDS011;51710;38.732;-121.358;2022-09-02T06:58:11;5.47;;;1.70;;
64966;SDS011;51710;38.732;-121.358;2022-09-02T07:00:38;6.72;;;2.10;;
64966;SDS011;51710;38.732;-121.358;2022-09-02T07:03:06;6.88;;;2.03;;
64966;SDS011;51710;38.732;-121.358;2022-09-02T07:06:02;3.75;;;1.58;;
64966;SDS011;51710;38.732;-121.358;2022-09-02T07:08:36;5.47;;;1.80;;
64966;SDS011;51710;38.732;-121.358;2022-09-02T07:11:05;5.70;;;1.55;;
64966;SDS011;51710;38.732;-121.358;2022-09-02T07:13:39;5.68;;;1.77;;
64966;SDS011;51710;38.732;-121.358;2022-09-02T07:16:06;5.22;;;1.60;;
64966;SDS011;51710;38.732;-121.358;2022-09-02T07:18:33;4.60;;;1.70;;
64966;SDS011;51710;38.732;-121.358;2022-09-02T07:21:01;3.53;;;1.40;;
64966;SDS011;51710;38.732;-121.358;2022-09-02T07:23:27;5.70;;;1.70;;
64966;SDS011;51710;38.732;-121.358;2022-09-02T07:25:54;4.95;;;1.70;;
64966;SDS011;51710;38.732;-121.358;2022-09-02T07:28:21;14.00;;;2.10;;
64966;SDS011;51710;38.732;-121.358;2022-09-02T07:30:48;4.82;;;1.60;;
64966;SDS011;51710;38.732;-121.358;2022-09-02T07:33:18;8.88;;;1.85;;
64966;SDS011;51710;38.732;-121.358;2022-09-02T07:35:46;5.57;;;1.77;;
64966;SDS011;51710;38.732;-121.358;2022-09-02T07:38:13;5.38;;;2.25;;
64966;SDS011;51710;38.732;-121.358;2022-09-02T07:40:40;7.22;;;1.50;;
64966;SDS011;51710;38.732;-121.358;2022-09-02T07:43:08;4.90;;;2.45;;
64966;SDS011;51710;38.732;-121.358;2022-09-02T07:45:36;4.93;;;2.25;;
64966;SDS011;51710;38.732;-121.358;2022-09-02T07:48:04;5.80;;;1.88;;
64966;SDS011;51710;38.732;-121.358;2022-09-02T07:50:33;5.57;;;1.92;;
64966;SDS011;51710;38.732;-121.358;2022-09-02T07:53:01;8.10;;;2.28;;
64966;SDS011;51710;38.732;-121.358;2022-09-02T07:55:31;7.13;;;3.03;;
64966;SDS011;51710;38.732;-121.358;2022-09-02T07:58:00;3.33;;;1.73;;
64966;SDS011;51710;38.732;-121.358;2022-09-02T08:00:26;13.18;;;2.10;;
64966;SDS011;51710;38.732;-121.358;2022-09-02T08:02:54;10.20;;;2.05;;
64966;SDS011;51710;38.732;-121.358;2022-09-02T08:05:22;3.50;;;1.95;;
64966;SDS011;51710;38.732;-121.358;2022-09-02T08:07:49;6.97;;;2.30;;
64966;SDS011;51710;38.732;-121.358;2022-09-02T08:10:16;6.15;;;2.20;;
64966;SDS011;51710;38.732;-121.358;2022-09-02T08:12:45;8.68;;;2.22;;
64966;SDS011;51710;38.732;-121.358;2022-09-02T08:15:12;6.13;;;2.17;;
64966;SDS011;51710;38.732;-121.358;2022-09-02T08:17:39;12.45;;;2.92;;
64966;SDS011;51710;38.732;-121.358;2022-09-02T08:20:08;5.72;;;2.28;;
64966;SDS011;51710;38.732;-121.358;2022-09-02T08:22:36;6.53;;;2.38;;
64966;SDS011;51710;38.732;-121.358;2022-09-02T08:25:03;13.52;;;2.42;;
64966;SDS011;51710;38.732;-121.358;2022-09-02T08:27:31;7.78;;;2.30;;
64966;SDS011;51710;38.732;-121.358;2022-09-02T08:29:58;8.10;;;1.90;;
64966;SDS011;51710;38.732;-121.358;2022-09-02T08:32:29;3.50;;;1.88;;
64966;SDS011;51710;38.732;-121.358;2022-09-02T08:34:58;6.93;;;2.10;;
64966;SDS011;51710;38.732;-121.358;2022-09-02T08:37:27;8.10;;;2.38;;
64966;SDS011;51710;38.732;-121.358;2022-09-02T08:39:58;6.32;;;1.90;;
64966;SDS011;51710;38.732;-121.358;2022-09-02T08:42:41;8.35;;;1.90;;
64966;SDS011;51710;38.732;-121.358;2022-09-02T08:48:01;5.88;;;1.98;;
64966;SDS011;51710;38.732;-121.358;2022-09-02T08:50:30;4.63;;;1.90;;
64966;SDS011;51710;38.732;-121.358;2022-09-02T08:55:35;7.47;;;1.67;;
64966;SDS011;51710;38.732;-121.358;2022-09-02T08:58:11;5.40;;;1.75;;
64966;SDS011;51710;38.732;-121.358;2022-09-02T09:00:48;6.05;;;2.10;;
64966;SDS011;51710;38.732;-121.358;2022-09-02T09:03:29;7.65;;;2.80;;
64966;SDS011;51710;38.732;-121.358;2022-09-02T09:06:09;3.80;;;1.65;;
64966;SDS011;51710;38.732;-121.358;2022-09-02T09:08:50;4.47;;;1.92;;
64966;SDS011;51710;38.732;-121.358;2022-09-02T09:14:08;7.22;;;2.35;;
64966;SDS011;51710;38.732;-121.358;2022-09-02T09:19:53;6.03;;;1.98;;
64966;SDS011;51710;38.732;-121.358;2022-09-02T09:22:33;3.15;;;1.90;;
64966;SDS011;51710;38.732;-121.358;2022-09-02T09:25:02;7.43;;;2.25;;
64966;SDS011;51710;38.732;-121.358;2022-09-02T09:27:36;3.75;;;1.88;;
64966;SDS011;51710;38.732;-121.358;2022-09-02T09:30:04;5.72;;;1.98;;
64966;SDS011;51710;38.732;-121.358;2022-09-02T09:32:34;5.13;;;2.15;;
64966;SDS011;51710;38.732;-121.358;2022-09-02T09:35:07;3.35;;;1.80;;
64966;SDS011;51710;38.732;-121.358;2022-09-02T09:45:34;4.25;;;2.20;;
64966;SDS011;51710;38.732;-121.358;2022-09-02T09:50:47;4.88;;;2.50;;
64966;SDS011;51710;38.732;-121.358;2022-09-02T09:53:20;6.55;;;2.03;;
64966;SDS011;51710;38.732;-121.358;2022-09-02T09:55:53;5.82;;;1.80;;
64966;SDS011;51710;38.732;-121.358;2022-09-02T09:58:53;3.88;;;1.60;;
64966;SDS011;51710;38.732;-121.358;2022-09-02T10:01:16;3.13;;;1.67;;
64966;SDS011;51710;38.732;-121.358;2022-09-02T10:04:24;5.22;;;1.70;;
64966;SDS011;51710;38.732;-121.358;2022-09-02T10:06:55;4.57;;;1.58;;
64966;SDS011;51710;38.732;-121.358;2022-09-02T10:09:42;3.95;;;1.65;;
64966;SDS011;51710;38.732;-121.358;2022-09-02T10:12:11;3.53;;;1.67;;
64966;SDS011;51710;38.732;-121.358;2022-09-02T10:14:45;3.50;;;1.75;;
64966;SDS011;51710;38.732;-121.358;2022-09-02T10:20:20;5.83;;;2.10;;
64966;SDS011;51710;38.732;-121.358;2022-09-02T10:28:19;4.95;;;1.50;;
64966;SDS011;51710;38.732;-121.358;2022-09-02T10:31:16;4.88;;;1.50;;
64966;SDS011;51710;38.732;-121.358;2022-09-02T10:34:33;3.63;;;1.27;;
64966;SDS011;51710;38.732;-121.358;2022-09-02T10:37:00;5.50;;;1.50;;
64966;SDS011;51710;38.732;-121.358;2022-09-02T10:39:52;2.85;;;1.25;;
64966;SDS011;51710;38.732;-121.358;2022-09-02T10:42:28;4.97;;;1.70;;
64966;SDS011;51710;38.732;-121.358;2022-09-02T10:48:04;3.45;;;1.30;;
64966;SDS011;51710;38.732;-121.358;2022-09-02T10:50:39;3.67;;;1.20;;
64966;SDS011;51710;38.732;-121.358;2022-09-02T10:55:58;3.10;;;1.25;;
64966;SDS011;51710;38.732;-121.358;2022-09-02T11:01:21;4.85;;;1.40;;
64966;SDS011;51710;38.732;-121.358;2022-09-02T11:04:18;2.50;;;1.30;;
64966;SDS011;51710;38.732;-121.358;2022-09-02T11:07:07;4.43;;;1.50;;
64966;SDS011;51710;38.732;-121.358;2022-09-02T11:09:40;2.72;;;1.27;;
64966;SDS011;51710;38.732;-121.358;2022-09-02T11:12:38;2.85;;;1.58;;
64966;SDS011;51710;38.732;-121.358;2022-09-02T11:26:08;3.95;;;1.55;;
64966;SDS011;51710;38.732;-121.358;2022-09-02T11:36:44;2.83;;;1.70;;
64966;SDS011;51710;38.732;-121.358;2022-09-02T11:39:18;3.80;;;1.60;;
64966;SDS011;51710;38.732;-121.358;2022-09-02T11:47:28;3.25;;;1.42;;
64966;SDS011;51710;38.732;-121.358;2022-09-02T11:58:43;3.38;;;1.27;;
64966;SDS011;51710;38.732;-121.358;2022-09-02T12:03:43;5.90;;;1.50;;
64966;SDS011;51710;38.732;-121.358;2022-09-02T12:14:07;3.00;;;1.40;;
64966;SDS011;51710;38.732;-121.358;2022-09-02T12:16:43;3.70;;;1.30;;
64966;SDS011;51710;38.732;-121.358;2022-09-02T12:19:27;4.85;;;1.30;;
64966;SDS011;51710;38.732;-121.358;2022-09-02T12:24:50;6.28;;;1.60;;
64966;SDS011;51710;38.732;-121.358;2022-09-02T12:27:31;2.40;;;1.05;;
64966;SDS011;51710;38.732;-121.358;2022-09-02T12:30:04;2.30;;;1.20;;
64966;SDS011;51710;38.732;-121.358;2022-09-02T12:35:31;3.95;;;1.83;;
64966;SDS011;51710;38.732;-121.358;2022-09-02T12:40:38;4.22;;;1.33;;
64966;SDS011;51710;38.732;-121.358;2022-09-02T12:43:18;3.88;;;1.42;;
64966;SDS011;51710;38.732;-121.358;2022-09-02T12:45:52;1.55;;;1.10;;
64966;SDS011;51710;38.732;-121.358;2022-09-02T12:48:23;3.67;;;1.42;;
64966;SDS011;51710;38.732;-121.358;2022-09-02T12:50:54;3.78;;;1.50;;
64966;SDS011;51710;38.732;-121.358;2022-09-02T12:55:56;4.53;;;1.33;;
64966;SDS011;51710;38.732;-121.358;2022-09-02T12:58:36;3.22;;;1.10;;
64966;SDS011;51710;38.732;-121.358;2022-09-02T13:04:08;3.67;;;1.30;;
64966;SDS011;51710;38.732;-121.358;2022-09-02T13:07:00;2.40;;;1.30;;
64966;SDS011;51710;38.732;-121.358;2022-09-02T13:12:48;3.63;;;1.10;;
64966;SDS011;51710;38.732;-121.358;2022-09-02T13:18:47;3.88;;;1.40;;
64966;SDS011;51710;38.732;-121.358;2022-09-02T13:21:49;3.83;;;1.10;;
64966;SDS011;51710;38.732;-121.358;2022-09-02T13:33:22;4.57;;;1.67;;
64966;SDS011;51710;38.732;-121.358;2022-09-02T13:38:21;5.15;;;1.50;;
64966;SDS011;51710;38.732;-121.358;2022-09-02T13:40:49;5.22;;;1.77;;
64966;SDS011;51710;38.732;-121.358;2022-09-02T13:43:17;4.57;;;1.60;;
64966;SDS011;51710;38.732;-121.358;2022-09-02T13:45:46;3.72;;;1.40;;
64966;SDS011;51710;38.732;-121.358;2022-09-02T13:48:16;5.47;;;1.60;;
64966;SDS011;51710;38.732;-121.358;2022-09-02T13:50:45;5.70;;;1.67;;
64966;SDS011;51710;38.732;-121.358;2022-09-02T13:53:20;4.47;;;1.70;;
64966;SDS011;51710;38.732;-121.358;2022-09-02T13:55:53;3.63;;;2.00;;
64966;SDS011;51710;38.732;-121.358;2022-09-02T13:58:30;5.10;;;1.60;;
64966;SDS011;51710;38.732;-121.358;2022-09-02T14:03:45;4.38;;;1.70;;
64966;SDS011;51710;38.732;-121.358;2022-09-02T14:06:14;4.07;;;2.08;;
64966;SDS011;51710;38.732;-121.358;2022-09-02T14:08:43;5.65;;;1.40;;
64966;SDS011;51710;38.732;-121.358;2022-09-02T14:11:14;4.95;;;1.73;;
64966;SDS011;51710;38.732;-121.358;2022-09-02T14:13:43;3.65;;;1.30;;
64966;SDS011;51710;38.732;-121.358;2022-09-02T14:16:27;5.75;;;1.40;;
64966;SDS011;51710;38.732;-121.358;2022-09-02T14:19:05;37.08;;;3.67;;
64966;SDS011;51710;38.732;-121.358;2022-09-02T14:21:33;14.20;;;1.83;;
64966;SDS011;51710;38.732;-121.358;2022-09-02T14:24:01;3.92;;;1.42;;
64966;SDS011;51710;38.732;-121.358;2022-09-02T14:26:47;8.98;;;1.80;;
64966;SDS011;51710;38.732;-121.358;2022-09-02T14:29:17;3.33;;;1.70;;
64966;SDS011;51710;38.732;-121.358;2022-09-02T14:31:44;2.88;;;1.38;;
64966;SDS011;51710;38.732;-121.358;2022-09-02T14:34:45;4.78;;;1.90;;
64966;SDS011;51710;38.732;-121.358;2022-09-02T14:37:14;3.83;;;1.40;;
64966;SDS011;51710;38.732;-121.358;2022-09-02T14:40:03;5.45;;;2.25;;
64966;SDS011;51710;38.732;-121.358;2022-09-02T14:42:32;5.63;;;1.88;;
64966;SDS011;51710;38.732;-121.358;2022-09-02T14:45:08;3.95;;;1.48;;
64966;SDS011;51710;38.732;-121.358;2022-09-02T14:47:37;4.20;;;1.95;;
64966;SDS011;51710;38.732;-121.358;2022-09-02T14:50:14;2.88;;;1.60;;
64966;SDS011;51710;38.732;-121.358;2022-09-02T14:52:47;5.07;;;1.60;;
64966;SDS011;51710;38.732;-121.358;2022-09-02T14:58:09;4.22;;;1.55;;
64966;SDS011;51710;38.732;-121.358;2022-09-02T15:00:36;4.53;;;2.45;;
64966;SDS011;51710;38.732;-121.358;2022-09-02T15:03:04;5.28;;;1.83;;
64966;SDS011;51710;38.732;-121.358;2022-09-02T15:05:37;5.90;;;1.33;;
64966;SDS011;51710;38.732;-121.358;2022-09-02T15:08:06;6.32;;;1.60;;
64966;SDS011;51710;38.732;-121.358;2022-09-02T15:10:35;7.22;;;2.20;;
64966;SDS011;51710;38.732;-121.358;2022-09-02T15:13:11;4.03;;;1.70;;
64966;SDS011;51710;38.732;-121.358;2022-09-02T15:15:56;5.00;;;2.05;;
64966;SDS011;51710;38.732;-121.358;2022-09-02T15:18:24;4.40;;;1.45;;
64966;SDS011;51710;38.732;-121.358;2022-09-02T15:20:51;3.10;;;1.60;;
64966;SDS011;51710;38.732;-121.358;2022-09-02T15:23:18;3.20;;;1.60;;
64966;SDS011;51710;38.732;-121.358;2022-09-02T15:25:46;4.38;;;1.70;;
64966;SDS011;51710;38.732;-121.358;2022-09-02T15:28:12;8.82;;;1.73;;
64966;SDS011;51710;38.732;-121.358;2022-09-02T15:30:38;5.70;;;1.73;;
64966;SDS011;51710;38.732;-121.358;2022-09-02T15:33:06;6.97;;;1.88;;
64966;SDS011;51710;38.732;-121.358;2022-09-02T15:35:33;4.90;;;1.50;;
64966;SDS011;51710;38.732;-121.358;2022-09-02T15:38:00;6.47;;;1.38;;
64966;SDS011;51710;38.732;-121.358;2022-09-02T15:40:28;3.15;;;1.58;;
64966;SDS011;51710;38.732;-121.358;2022-09-02T15:42:58;4.82;;;1.88;;
64966;SDS011;51710;38.732;-121.358;2022-09-02T15:45:25;4.50;;;1.60;;
64966;SDS011;51710;38.732;-121.358;2022-09-02T15:47:54;5.35;;;1.70;;
64966;SDS011;51710;38.732;-121.358;2022-09-02T15:50:22;7.15;;;1.50;;
64966;SDS011;51710;38.732;-121.358;2022-09-02T15:52:49;5.00;;;1.80;;
64966;SDS011;51710;38.732;-121.358;2022-09-02T15:55:15;3.70;;;2.00;;
64966;SDS011;51710;38.732;-121.358;2022-09-02T15:57:41;5.60;;;2.00;;
64966;SDS011;51710;38.732;-121.358;2022-09-02T16:00:08;4.18;;;1.73;;
64966;SDS011;51710;38.732;-121.358;2022-09-02T16:02:35;4.50;;;1.98;;
64966;SDS011;51710;38.732;-121.358;2022-09-02T16:05:01;2.80;;;1.58;;
64966;SDS011;51710;38.732;-121.358;2022-09-02T16:07:27;2.85;;;1.35;;
64966;SDS011;51710;38.732;-121.358;2022-09-02T16:09:54;5.03;;;1.58;;
64966;SDS011;51710;38.732;-121.358;2022-09-02T16:12:20;4.45;;;1.60;;
64966;SDS011;51710;38.732;-121.358;2022-09-02T16:14:46;3.33;;;1.48;;
64966;SDS011;51710;38.732;-121.358;2022-09-02T16:17:15;4.47;;;1.88;;
64966;SDS011;51710;38.732;-121.358;2022-09-02T16:19:42;7.40;;;1.95;;
64966;SDS011;51710;38.732;-121.358;2022-09-02T16:22:08;3.30;;;2.05;;
64966;SDS011;51710;38.732;-121.358;2022-09-02T16:24:34;4.47;;;1.33;;
64966;SDS011;51710;38.732;-121.358;2022-09-02T16:27:00;5.20;;;1.98;;
64966;SDS011;51710;38.732;-121.358;2022-09-02T16:29:27;6.47;;;1.80;;
64966;SDS011;51710;38.732;-121.358;2022-09-02T16:31:54;3.95;;;1.40;;